AG4OX Weather Reports


Display with metric or nautical units.
time (UTC)temp
F
wind
direction
speed
MPH
gust
MPH
rain 1hr
in
rain 24hr
in
rain mn
in
humidity
%
barometer
mb
20240226150004 70 63 2.0 5.0 0.00 0.00 0.00 57 1022.4
20240226145005 70 70 1.0 5.0 0.00 0.00 0.00 59 1022.4
20240226144005 69 98 0.0 3.0 0.00 0.00 0.00 61 1022.3
20240226143004 69 74 0.0 1.0 0.00 0.00 0.00 63 1022.2
20240226142005 68 50 0.0 1.0 0.00 0.00 0.00 65 1022.1
20240226140005 65 58 0.0 1.0 0.00 0.00 0.00 70 1022.0
20240226135005 64 59 0.0 0.0 0.00 0.00 0.00 76 1021.8
20240226134004 62 18 0.0 0.0 0.00 0.00 0.00 81 1021.7
20240226133005 61 9 0.0 0.0 0.00 0.00 0.00 83 1021.6
20240226132004 59 9 0.0 0.0 0.00 0.00 0.00 83 1021.6
20240226131006 57 9 0.0 0.0 0.00 0.00 0.00 84 1021.6
20240226130005 53 9 0.0 0.0 0.00 0.00 0.00 84 1021.5
20240226125004 51 9 0.0 0.0 0.00 0.00 0.00 84 1021.5
20240226124005 50 9 0.0 0.0 0.00 0.00 0.00 84 1021.5
20240226123004 48 9 0.0 0.0 0.00 0.00 0.00 85 1021.5
20240226122005 47 9 0.0 0.0 0.00 0.00 0.00 85 1021.5
20240226121005 46 5 0.0 0.0 0.00 0.00 0.00 85 1021.5
20240226120004 46 5 0.0 0.0 0.00 0.00 0.00 85 1021.6
20240226115005 47 5 0.0 0.0 0.00 0.00 0.00 85 1021.5
20240226114005 47 5 0.0 0.0 0.00 0.00 0.00 85 1021.5
20240226113005 47 5 0.0 0.0 0.00 0.00 0.00 85 1021.4
20240226112006 47 5 0.0 0.0 0.00 0.00 0.00 85 1021.2
20240226110005 47 5 0.0 0.0 0.00 0.00 0.00 84 1021.2
20240226105005 47 5 0.0 0.0 0.00 0.00 0.00 85 1021.0
20240226104005 47 5 0.0 0.0 0.00 0.00 0.00 85 1020.9
20240226102005 47 5 0.0 0.0 0.00 0.00 0.00 85 1020.8
20240226101005 47 5 0.0 0.0 0.00 0.00 0.00 85 1020.8
20240226100005 47 5 0.0 0.0 0.00 0.00 0.00 85 1020.7
20240226095005 47 5 0.0 0.0 0.00 0.00 0.00 85 1020.6
20240226094006 47 5 0.0 0.0 0.00 0.00 0.00 85 1020.6
20240226093005 47 5 0.0 0.0 0.00 0.00 0.00 85 1020.7
20240226092006 47 5 0.0 0.0 0.00 0.00 0.00 85 1020.8
20240226090005 47 5 0.0 0.0 0.00 0.00 0.00 85 1020.8
20240226085005 47 5 0.0 0.0 0.00 0.00 0.00 85 1020.8
20240226084005 47 5 0.0 0.0 0.00 0.00 0.00 85 1020.7
20240226083006 48 5 0.0 0.0 0.00 0.00 0.00 85 1020.7
20240226082005 48 5 0.0 0.0 0.00 0.00 0.00 85 1020.7
20240226081005 48 5 0.0 0.0 0.00 0.00 0.00 85 1020.7
20240226080004 48 5 0.0 0.0 0.00 0.00 0.00 85 1020.7
20240226075005 48 5 0.0 0.0 0.00 0.00 0.00 85 1020.6
20240226074005 49 5 0.0 0.0 0.00 0.00 0.00 84 1020.5
20240226073006 49 5 0.0 0.0 0.00 0.00 0.00 84 1020.5
20240226072005 49 5 0.0 0.0 0.00 0.00 0.00 84 1020.6
20240226070005 49 5 0.0 0.0 0.00 0.00 0.00 84 1020.6
20240226065005 48 5 0.0 0.0 0.00 0.00 0.00 85 1020.7
20240226063007 48 5 0.0 0.0 0.00 0.00 0.00 85 1020.7
20240226062005 48 5 0.0 0.0 0.00 0.00 0.00 85 1020.5
20240226060004 49 5 0.0 0.0 0.00 0.00 0.00 85 1020.5
20240226054006 50 5 0.0 0.0 0.00 0.00 0.00 84 1020.5
20240226053004 50 5 0.0 0.0 0.00 0.00 0.00 84 1020.4
20240226052006 50 5 0.0 0.0 0.00 0.00 0.00 84 1020.4
20240226050005 50 68 0.0 0.0 0.00 0.00 0.00 84 1020.4
20240226045005 49 68 0.0 0.0 0.00 0.00 0.00 84 1020.3
20240226044004 49 68 0.0 0.0 0.00 0.00 0.00 84 1020.2
20240226042005 48 68 0.0 0.0 0.00 0.00 0.00 85 1020.3
20240226040005 48 68 0.0 0.0 0.00 0.00 0.00 85 1020.4
20240226034005 48 68 0.0 0.0 0.00 0.00 0.00 85 1020.3
20240226033005 48 68 0.0 0.0 0.00 0.00 0.00 85 1020.3
20240226032005 48 68 0.0 0.0 0.00 0.00 0.00 85 1020.4
20240226031005 49 68 0.0 0.0 0.00 0.00 0.00 85 1020.4
20240226030004 49 68 0.0 0.0 0.00 0.00 0.00 85 1020.4
20240226025005 49 68 0.0 0.0 0.00 0.00 0.00 85 1020.3
20240226024006 50 68 0.0 0.0 0.00 0.00 0.00 85 1020.5
20240226023005 50 68 0.0 0.0 0.00 0.00 0.00 84 1020.5
20240226022005 50 68 0.0 0.0 0.00 0.00 0.00 85 1020.6
20240226021005 51 68 0.0 0.0 0.00 0.00 0.00 84 1020.5
20240226015005 52 68 0.0 0.0 0.00 0.00 0.00 84 1020.6
20240226014005 52 68 0.0 0.0 0.00 0.00 0.00 83 1020.6
20240226013005 52 68 0.0 0.0 0.00 0.00 0.00 83 1020.6
20240226012005 53 68 0.0 0.0 0.00 0.00 0.00 82 1020.2
20240226011005 54 68 0.0 0.0 0.00 0.00 0.00 81 1020.0
20240226010004 54 68 0.0 0.0 0.00 0.00 0.00 79 1019.9
20240226005005 55 68 0.0 0.0 0.00 0.00 0.00 76 1019.7
20240226004005 56 68 0.0 0.0 0.00 0.00 0.00 70 1019.7
20240226003005 57 68 0.0 0.0 0.00 0.00 0.00 71 1019.7
20240226002004 58 68 0.0 0.0 0.00 0.00 0.00 69 1019.7
20240226001004 59 68 0.0 0.0 0.00 0.00 0.00 67 1019.6
20240226000005 60 68 0.0 0.0 0.00 0.00 0.00 62 1019.3
20240225235005 60 68 0.0 0.0 0.00 0.00 0.00 62 1019.4
20240225233005 62 68 0.0 0.0 0.00 0.00 0.00 54 1019.5
20240225232005 63 69 0.0 3.0 0.00 0.00 0.00 52 1019.5
20240225231005 64 59 0.0 2.0 0.00 0.00 0.00 51 1019.4
20240225230005 64 62 0.0 3.0 0.00 0.00 0.00 48 1019.2
20240225225004 65 57 1.0 6.0 0.00 0.00 0.00 46 1019.1
20240225224004 66 59 0.0 6.0 0.00 0.00 0.00 47 1019.1
20240225223004 66 66 3.0 6.0 0.00 0.00 0.00 46 1019.1
20240225222006 67 70 1.0 6.0 0.00 0.00 0.00 46 1019.0
20240225221004 68 90 2.0 6.0 0.00 0.00 0.00 44 1018.8
20240225220004 68 52 2.0 10.0 0.00 0.00 0.00 40 1018.8
20240225215005 69 106 1.0 7.0 0.00 0.00 0.00 42 1018.8
20240225213005 70 77 2.0 6.0 0.00 0.00 0.00 40 1018.6
20240225211005 71 74 2.0 7.0 0.00 0.00 0.00 37 1018.4
20240225205005 71 100 2.0 6.0 0.00 0.00 0.00 36 1018.2
20240225204005 72 67 1.0 5.0 0.00 0.00 0.00 37 1018.2
20240225203005 72 85 3.0 7.0 0.00 0.00 0.00 35 1018.2
20240225202005 75 59 2.0 6.0 0.00 0.00 0.00 33 1018.3
20240225201004 74 306 2.0 7.0 0.00 0.00 0.00 29 1018.4
20240225200005 74 261 1.0 7.0 0.00 0.00 0.00 32 1018.5
20240225195005 74 309 1.0 7.0 0.00 0.00 0.00 31 1018.6
20240225194005 74 317 1.0 7.0 0.00 0.00 0.00 30 1018.6
20240225193005 74 302 2.0 7.0 0.00 0.00 0.00 32 1018.5
20240225191005 73 272 2.0 9.0 0.00 0.00 0.00 32 1018.8
20240225190004 73 217 0.0 7.0 0.00 0.00 0.00 30 1018.8
20240225185005 73 318 2.0 6.0 0.00 0.00 0.00 31 1018.9
20240225184005 72 238 1.0 12.0 0.00 0.00 0.00 29 1019.2
20240225183005 73 323 0.0 3.0 0.00 0.00 0.00 33 1019.2
20240225182005 73 50 0.0 6.0 0.00 0.00 0.00 33 1019.3
20240225181005 72 283 1.0 7.0 0.00 0.00 0.00 34 1019.5
20240225180005 72 246 2.0 7.0 0.00 0.00 0.00 34 1019.7
20240225175005 72 310 1.0 8.0 0.00 0.00 0.00 34 1019.9
20240225174005 72 291 2.0 6.0 0.00 0.00 0.00 32 1019.9
20240225172005 71 283 2.0 9.0 0.00 0.00 0.00 32 1020.1
20240225171005 71 270 3.0 7.0 0.00 0.00 0.00 32 1020.2
20240225170005 72 324 1.0 10.0 0.00 0.00 0.00 33 1020.3
20240225165006 71 303 2.0 6.0 0.00 0.00 0.00 36 1020.4
20240225164005 72 354 0.0 6.0 0.00 0.00 0.00 34 1020.6
20240225163005 72 350 0.0 3.0 0.00 0.00 0.00 33 1020.8
20240225162005 71 316 0.0 3.0 0.00 0.00 0.00 36 1020.8
20240225161005 70 284 0.0 3.0 0.00 0.00 0.00 41 1020.8
20240225160004 71 321 0.0 1.0 0.00 0.00 0.00 40 1021.0
20240225155005 71 263 0.0 0.0 0.00 0.00 0.00 44 1021.0
20240225153006 66 261 0.0 1.0 0.00 0.00 0.00 49 1021.2
20240225152005 66 224 0.0 1.0 0.00 0.00 0.00 56 1021.2